KLIC

Limon Municipal Airport

Limon, Colorado, USA
METAR KLIC 211455Z AUTO 00000KT 10SM CLR M07/M07 A2959 RMK AO2 SLP044 T10671072 56010
Observed Flight Rules
Jan-21 @ 14:55 UTC (59 minutes ago) Visual Flight Rules
Visibility Clouds
10 miles
  • Clear skies
Temperatures Readings
Current -7°C / 19°F
Dewpoint -7°C / 19°F
Humidity 100%
Altimeter 29.59" Hg
Pressure 1004.4 hPa
Elevation 1630
METAR KLIC 211455Z AUTO 00000KT 10SM CLR M07/M07 A2959 RMK AO2 SLP044 T10671072 56010
Observed Flight Rules
Jan-21 @ 14:55 UTC
(59 minutes ago)
VFR
Clouds
  • Clear skies
Temperature Dewpoint
-7°C / 19°F -7°C / 19°F
Humidity Altimeter Pressure
100% 29.59" Hg 1004.4 hPa